sensor_id;sensor_type;location;lat;lon;timestamp;pressure;altitude;pressure_sealevel;temperature;humidity
9225;BME280;4647;48.072;11.616;2023-04-23T06:00:28;94806.06;;;11.94;78.02
9225;BME280;4647;48.072;11.616;2023-04-23T06:03:07;94820.94;;;12.03;77.75
9225;BME280;4647;48.072;11.616;2023-04-23T06:05:37;94819.28;;;11.92;78.29
9225;BME280;4647;48.072;11.616;2023-04-23T06:08:07;94829.00;;;12.06;78.17
9225;BME280;4647;48.072;11.616;2023-04-23T06:10:37;94827.47;;;12.05;77.28
9225;BME280;4647;48.072;11.616;2023-04-23T06:13:06;94834.91;;;12.17;77.48
9225;BME280;4647;48.072;11.616;2023-04-23T06:15:37;94828.50;;;12.24;77.25
9225;BME280;4647;48.072;11.616;2023-04-23T06:18:09;94831.47;;;12.01;78.64
9225;BME280;4647;48.072;11.616;2023-04-23T06:20:37;94829.41;;;11.92;78.59
9225;BME280;4647;48.072;11.616;2023-04-23T06:23:06;94825.91;;;11.91;79.02
9225;BME280;4647;48.072;11.616;2023-04-23T06:25:34;94834.63;;;11.99;78.78
9225;BME280;4647;48.072;11.616;2023-04-23T06:28:02;94837.22;;;12.03;78.98
9225;BME280;4647;48.072;11.616;2023-04-23T06:30:31;94842.22;;;12.04;79.04
9225;BME280;4647;48.072;11.616;2023-04-23T06:33:02;94838.69;;;12.07;79.02
9225;BME280;4647;48.072;11.616;2023-04-23T06:35:30;94840.81;;;11.99;79.09
9225;BME280;4647;48.072;11.616;2023-04-23T06:37:59;94840.78;;;12.16;79.43
9225;BME280;4647;48.072;11.616;2023-04-23T06:40:28;94836.63;;;12.11;80.27
9225;BME280;4647;48.072;11.616;2023-04-23T06:42:57;94830.94;;;12.35;79.20
9225;BME280;4647;48.072;11.616;2023-04-23T06:45:29;94839.19;;;12.31;79.49
9225;BME280;4647;48.072;11.616;2023-04-23T06:47:57;94841.38;;;12.36;79.49
9225;BME280;4647;48.072;11.616;2023-04-23T06:50:28;94831.16;;;12.40;79.61
9225;BME280;4647;48.072;11.616;2023-04-23T06:52:57;94820.84;;;12.48;79.48
9225;BME280;4647;48.072;11.616;2023-04-23T06:55:25;94824.09;;;12.43;78.58
9225;BME280;4647;48.072;11.616;2023-04-23T06:57:54;94821.84;;;12.67;78.71
9225;BME280;4647;48.072;11.616;2023-04-23T07:00:23;94833.25;;;12.62;78.25
9225;BME280;4647;48.072;11.616;2023-04-23T07:02:51;94827.41;;;12.21;79.50
9225;BME280;4647;48.072;11.616;2023-04-23T07:05:20;94822.81;;;12.73;78.17
9225;BME280;4647;48.072;11.616;2023-04-23T07:07:51;94815.56;;;12.82;77.90
9225;BME280;4647;48.072;11.616;2023-04-23T07:10:19;94816.72;;;13.07;77.12
9225;BME280;4647;48.072;11.616;2023-04-23T07:12:48;94821.50;;;12.77;76.69
9225;BME280;4647;48.072;11.616;2023-04-23T07:15:17;94815.31;;;12.77;77.72
9225;BME280;4647;48.072;11.616;2023-04-23T07:17:45;94816.41;;;13.05;76.86
9225;BME280;4647;48.072;11.616;2023-04-23T07:20:13;94817.69;;;13.13;75.87
9225;BME280;4647;48.072;11.616;2023-04-23T07:22:42;94815.84;;;13.23;75.81
9225;BME280;4647;48.072;11.616;2023-04-23T07:25:13;94812.38;;;13.22;75.29
9225;BME280;4647;48.072;11.616;2023-04-23T07:27:41;94811.06;;;13.14;75.54
9225;BME280;4647;48.072;11.616;2023-04-23T07:30:10;94813.13;;;13.23;75.54
9225;BME280;4647;48.072;11.616;2023-04-23T07:32:39;94822.94;;;13.20;75.76
9225;BME280;4647;48.072;11.616;2023-04-23T07:35:08;94823.56;;;13.11;75.44
9225;BME280;4647;48.072;11.616;2023-04-23T07:37:37;94819.34;;;13.23;75.59
9225;BME280;4647;48.072;11.616;2023-04-23T07:40:06;94806.63;;;12.95;76.29
9225;BME280;4647;48.072;11.616;2023-04-23T07:42:37;94818.56;;;13.23;76.25
9225;BME280;4647;48.072;11.616;2023-04-23T07:45:09;94821.22;;;13.26;75.89
9225;BME280;4647;48.072;11.616;2023-04-23T07:47:37;94823.25;;;13.35;75.14
9225;BME280;4647;48.072;11.616;2023-04-23T07:50:07;94816.91;;;13.50;75.31
9225;BME280;4647;48.072;11.616;2023-04-23T07:52:36;94819.88;;;13.31;76.21
9225;BME280;4647;48.072;11.616;2023-04-23T07:55:05;94817.72;;;13.26;75.94
9225;BME280;4647;48.072;11.616;2023-04-23T07:57:38;94823.25;;;13.35;75.88
9225;BME280;4647;48.072;11.616;2023-04-23T08:00:07;94799.97;;;12.96;76.36
9225;BME280;4647;48.072;11.616;2023-04-23T08:02:36;94815.97;;;13.19;76.66
9225;BME280;4647;48.072;11.616;2023-04-23T08:05:06;94825.88;;;13.26;75.21
9225;BME280;4647;48.072;11.616;2023-04-23T08:07:34;94818.69;;;13.19;75.48
9225;BME280;4647;48.072;11.616;2023-04-23T08:10:03;94823.69;;;13.33;74.83
9225;BME280;4647;48.072;11.616;2023-04-23T08:12:33;94813.88;;;13.36;75.20
9225;BME280;4647;48.072;11.616;2023-04-23T08:15:05;94822.09;;;13.58;74.45
9225;BME280;4647;48.072;11.616;2023-04-23T08:17:33;94820.78;;;13.62;74.33
9225;BME280;4647;48.072;11.616;2023-04-23T08:20:02;94798.56;;;13.64;73.83
9225;BME280;4647;48.072;11.616;2023-04-23T08:22:31;94803.34;;;13.94;73.58
9225;BME280;4647;48.072;11.616;2023-04-23T08:24:59;94800.56;;;14.07;73.20
9225;BME280;4647;48.072;11.616;2023-04-23T08:27:29;94800.50;;;13.98;72.08
9225;BME280;4647;48.072;11.616;2023-04-23T08:29:57;94794.16;;;14.23;71.91
9225;BME280;4647;48.072;11.616;2023-04-23T08:32:28;94810.91;;;14.96;69.54
9225;BME280;4647;48.072;11.616;2023-04-23T08:34:57;94775.88;;;15.44;67.23
9225;BME280;4647;48.072;11.616;2023-04-23T08:37:25;94795.00;;;16.17;64.25
9225;BME280;4647;48.072;11.616;2023-04-23T08:39:54;94802.19;;;16.66;62.81
9225;BME280;4647;48.072;11.616;2023-04-23T08:42:25;94800.09;;;16.61;62.46
9225;BME280;4647;48.072;11.616;2023-04-23T08:44:58;94789.38;;;16.20;64.36
9225;BME280;4647;48.072;11.616;2023-04-23T08:47:29;94784.69;;;16.03;64.39
9225;BME280;4647;48.072;11.616;2023-04-23T08:50:00;94792.28;;;15.80;66.00
9225;BME280;4647;48.072;11.616;2023-04-23T08:52:33;94783.97;;;16.53;64.20
9225;BME280;4647;48.072;11.616;2023-04-23T08:55:04;94788.44;;;16.93;63.06
9225;BME280;4647;48.072;11.616;2023-04-23T08:57:38;94796.28;;;17.09;60.13
9225;BME280;4647;48.072;11.616;2023-04-23T09:00:10;94776.88;;;17.22;59.13
9225;BME280;4647;48.072;11.616;2023-04-23T09:02:42;94795.75;;;17.20;60.06
9225;BME280;4647;48.072;11.616;2023-04-23T09:05:11;94789.75;;;16.65;61.92
9225;BME280;4647;48.072;11.616;2023-04-23T09:07:40;94790.41;;;16.32;61.80
9225;BME280;4647;48.072;11.616;2023-04-23T09:10:10;94793.78;;;16.36;62.22
9225;BME280;4647;48.072;11.616;2023-04-23T09:12:41;94787.09;;;16.37;63.00
9225;BME280;4647;48.072;11.616;2023-04-23T09:15:10;94785.03;;;16.65;62.74
9225;BME280;4647;48.072;11.616;2023-04-23T09:17:43;94765.00;;;16.50;61.85
9225;BME280;4647;48.072;11.616;2023-04-23T09:20:13;94779.88;;;16.67;61.11
9225;BME280;4647;48.072;11.616;2023-04-23T09:22:44;94767.56;;;15.93;63.47
9225;BME280;4647;48.072;11.616;2023-04-23T09:25:15;94769.06;;;16.03;64.14
9225;BME280;4647;48.072;11.616;2023-04-23T09:27:45;94762.81;;;16.03;63.51
9225;BME280;4647;48.072;11.616;2023-04-23T09:30:14;94772.41;;;15.80;64.98
9225;BME280;4647;48.072;11.616;2023-04-23T09:32:46;94768.00;;;15.91;65.05
9225;BME280;4647;48.072;11.616;2023-04-23T09:35:15;94755.22;;;16.16;62.47
9225;BME280;4647;48.072;11.616;2023-04-23T09:37:46;94767.47;;;16.39;62.19
9225;BME280;4647;48.072;11.616;2023-04-23T09:40:18;94765.22;;;16.37;60.51
9225;BME280;4647;48.072;11.616;2023-04-23T09:42:47;94754.63;;;16.72;61.38
9225;BME280;4647;48.072;11.616;2023-04-23T09:45:17;94759.25;;;16.48;62.23
9225;BME280;4647;48.072;11.616;2023-04-23T09:47:52;94750.41;;;16.62;61.04
9225;BME280;4647;48.072;11.616;2023-04-23T09:50:31;94754.88;;;16.41;62.31
9225;BME280;4647;48.072;11.616;2023-04-23T09:53:01;94748.47;;;16.44;63.36
9225;BME280;4647;48.072;11.616;2023-04-23T09:55:30;94751.44;;;17.31;59.79
9225;BME280;4647;48.072;11.616;2023-04-23T09:58:00;94756.91;;;17.78;58.01
9225;BME280;4647;48.072;11.616;2023-04-23T10:00:32;94749.63;;;17.04;58.96
9225;BME280;4647;48.072;11.616;2023-04-23T10:03:05;94746.47;;;17.68;58.53
9225;BME280;4647;48.072;11.616;2023-04-23T10:05:37;94739.69;;;16.82;61.28
9225;BME280;4647;48.072;11.616;2023-04-23T10:08:07;94729.41;;;16.17;63.23
9225;BME280;4647;48.072;11.616;2023-04-23T10:10:37;94737.84;;;16.46;62.58
9225;BME280;4647;48.072;11.616;2023-04-23T10:13:07;94739.25;;;16.33;62.19
9225;BME280;4647;48.072;11.616;2023-04-23T10:15:36;94734.44;;;16.61;61.97
9225;BME280;4647;48.072;11.616;2023-04-23T10:18:07;94729.38;;;16.35;62.68
9225;BME280;4647;48.072;11.616;2023-04-23T10:20:37;94732.13;;;16.26;62.98
9225;BME280;4647;48.072;11.616;2023-04-23T10:23:07;94721.91;;;16.78;62.50
9225;BME280;4647;48.072;11.616;2023-04-23T10:25:38;94724.94;;;17.37;60.54
9225;BME280;4647;48.072;11.616;2023-04-23T10:28:08;94722.56;;;16.73;62.04
9225;BME280;4647;48.072;11.616;2023-04-23T10:30:41;94723.34;;;16.97;59.88
9225;BME280;4647;48.072;11.616;2023-04-23T10:33:13;94719.00;;;17.14;60.16
9225;BME280;4647;48.072;11.616;2023-04-23T10:35:42;94728.00;;;17.92;58.90
9225;BME280;4647;48.072;11.616;2023-04-23T10:38:10;94725.97;;;16.92;60.01
9225;BME280;4647;48.072;11.616;2023-04-23T10:40:40;94725.34;;;17.21;59.32
9225;BME280;4647;48.072;11.616;2023-04-23T10:43:12;94723.00;;;17.91;58.93
9225;BME280;4647;48.072;11.616;2023-04-23T10:45:42;94720.34;;;17.82;57.99
9225;BME280;4647;48.072;11.616;2023-04-23T10:48:13;94712.59;;;18.54;55.04
9225;BME280;4647;48.072;11.616;2023-04-23T10:50:42;94706.72;;;19.11;53.62
9225;BME280;4647;48.072;11.616;2023-04-23T10:53:17;94683.75;;;19.95;49.79
9225;BME280;4647;48.072;11.616;2023-04-23T10:55:46;94701.38;;;19.42;51.04
9225;BME280;4647;48.072;11.616;2023-04-23T10:58:16;94704.34;;;19.59;51.32
9225;BME280;4647;48.072;11.616;2023-04-23T11:00:46;94697.16;;;19.06;51.81
9225;BME280;4647;48.072;11.616;2023-04-23T11:03:37;94649.41;;;18.98;50.81
9225;BME280;4647;48.072;11.616;2023-04-23T11:06:07;94677.31;;;18.76;52.39
9225;BME280;4647;48.072;11.616;2023-04-23T11:08:36;94659.38;;;18.46;53.35
9225;BME280;4647;48.072;11.616;2023-04-23T11:11:06;94667.75;;;18.72;52.87
9225;BME280;4647;48.072;11.616;2023-04-23T11:13:35;94666.13;;;18.80;52.44
9225;BME280;4647;48.072;11.616;2023-04-23T11:16:14;94653.69;;;18.84;52.29
9225;BME280;4647;48.072;11.616;2023-04-23T11:19:03;94650.47;;;18.86;52.57
9225;BME280;4647;48.072;11.616;2023-04-23T11:21:57;94647.66;;;18.30;53.26
9225;BME280;4647;48.072;11.616;2023-04-23T11:24:27;94647.22;;;17.88;54.32
9225;BME280;4647;48.072;11.616;2023-04-23T11:26:56;94626.97;;;18.64;53.50
9225;BME280;4647;48.072;11.616;2023-04-23T11:29:26;94642.78;;;18.69;52.47
9225;BME280;4647;48.072;11.616;2023-04-23T11:31:55;94638.75;;;19.06;52.55
9225;BME280;4647;48.072;11.616;2023-04-23T11:34:27;94634.22;;;19.02;52.32
9225;BME280;4647;48.072;11.616;2023-04-23T11:36:57;94645.13;;;18.12;54.26
9225;BME280;4647;48.072;11.616;2023-04-23T11:39:27;94634.63;;;18.10;55.71
9225;BME280;4647;48.072;11.616;2023-04-23T11:41:55;94634.97;;;18.48;54.12
9225;BME280;4647;48.072;11.616;2023-04-23T11:44:27;94632.94;;;18.98;52.67
9225;BME280;4647;48.072;11.616;2023-04-23T11:46:58;94606.63;;;19.12;51.25
9225;BME280;4647;48.072;11.616;2023-04-23T11:49:30;94621.28;;;19.70;48.48
9225;BME280;4647;48.072;11.616;2023-04-23T11:51:59;94621.22;;;19.64;49.85
9225;BME280;4647;48.072;11.616;2023-04-23T11:54:28;94616.81;;;19.52;48.44
9225;BME280;4647;48.072;11.616;2023-04-23T11:56:57;94609.63;;;19.80;47.16
9225;BME280;4647;48.072;11.616;2023-04-23T11:59:27;94605.47;;;19.90;48.06
9225;BME280;4647;48.072;11.616;2023-04-23T12:01:57;94606.75;;;19.43;49.27
9225;BME280;4647;48.072;11.616;2023-04-23T12:04:30;94573.97;;;19.40;49.76
9225;BME280;4647;48.072;11.616;2023-04-23T12:06:59;94601.22;;;19.17;51.36
9225;BME280;4647;48.072;11.616;2023-04-23T12:09:28;94593.16;;;19.86;49.08
9225;BME280;4647;48.072;11.616;2023-04-23T12:11:56;94586.03;;;18.81;50.72
9225;BME280;4647;48.072;11.616;2023-04-23T12:14:26;94557.09;;;18.80;50.64
9225;BME280;4647;48.072;11.616;2023-04-23T12:16:56;94582.75;;;19.18;50.09
9225;BME280;4647;48.072;11.616;2023-04-23T12:19:26;94576.63;;;18.67;51.67
9225;BME280;4647;48.072;11.616;2023-04-23T12:21:59;94575.09;;;18.46;51.23
9225;BME280;4647;48.072;11.616;2023-04-23T12:24:30;94573.22;;;18.73;51.41
9225;BME280;4647;48.072;11.616;2023-04-23T12:26:59;94570.22;;;18.56;52.74
9225;BME280;4647;48.072;11.616;2023-04-23T12:29:29;94572.66;;;18.68;51.02
9225;BME280;4647;48.072;11.616;2023-04-23T12:31:58;94566.34;;;18.27;53.13
9225;BME280;4647;48.072;11.616;2023-04-23T12:34:27;94568.56;;;18.08;51.77
9225;BME280;4647;48.072;11.616;2023-04-23T12:36:58;94572.19;;;18.35;50.84
9225;BME280;4647;48.072;11.616;2023-04-23T12:39:29;94564.28;;;18.22;51.95
9225;BME280;4647;48.072;11.616;2023-04-23T12:41:59;94561.63;;;18.28;51.89
9225;BME280;4647;48.072;11.616;2023-04-23T12:44:29;94553.53;;;18.74;50.28
9225;BME280;4647;48.072;11.616;2023-04-23T12:47:00;94546.06;;;19.21;49.95
9225;BME280;4647;48.072;11.616;2023-04-23T12:49:32;94541.69;;;19.09;49.31
9225;BME280;4647;48.072;11.616;2023-04-23T12:52:04;94534.72;;;18.87;49.30
9225;BME280;4647;48.072;11.616;2023-04-23T12:54:34;94535.06;;;18.95;49.66
9225;BME280;4647;48.072;11.616;2023-04-23T12:57:04;94498.28;;;18.87;49.81
9225;BME280;4647;48.072;11.616;2023-04-23T12:59:33;94520.22;;;18.87;49.97
9225;BME280;4647;48.072;11.616;2023-04-23T13:02:02;94524.41;;;19.28;49.64
9225;BME280;4647;48.072;11.616;2023-04-23T13:04:33;94523.19;;;19.87;47.76
9225;BME280;4647;48.072;11.616;2023-04-23T13:07:04;94516.59;;;19.73;47.33
9225;BME280;4647;48.072;11.616;2023-04-23T13:09:33;94514.53;;;20.37;46.11
9225;BME280;4647;48.072;11.616;2023-04-23T13:12:03;94508.56;;;20.01;47.27
9225;BME280;4647;48.072;11.616;2023-04-23T13:14:31;94502.56;;;19.66;47.15
9225;BME280;4647;48.072;11.616;2023-04-23T13:17:00;94497.25;;;19.62;47.69
9225;BME280;4647;48.072;11.616;2023-04-23T13:19:28;94487.38;;;20.13;46.99
9225;BME280;4647;48.072;11.616;2023-04-23T13:21:58;94495.94;;;20.20;45.65
9225;BME280;4647;48.072;11.616;2023-04-23T13:24:29;94489.38;;;20.12;46.63
9225;BME280;4647;48.072;11.616;2023-04-23T13:26:57;94480.28;;;19.95;47.41
9225;BME280;4647;48.072;11.616;2023-04-23T13:29:26;94475.84;;;20.57;45.78
9225;BME280;4647;48.072;11.616;2023-04-23T13:31:55;94465.16;;;20.65;44.64
9225;BME280;4647;48.072;11.616;2023-04-23T13:34:24;94467.16;;;20.75;44.01
9225;BME280;4647;48.072;11.616;2023-04-23T13:36:52;94461.16;;;20.17;45.82
9225;BME280;4647;48.072;11.616;2023-04-23T13:39:22;94454.91;;;19.80;46.95
9225;BME280;4647;48.072;11.616;2023-04-23T13:41:53;94445.47;;;19.86;45.84
9225;BME280;4647;48.072;11.616;2023-04-23T13:44:22;94439.63;;;19.68;45.55
9225;BME280;4647;48.072;11.616;2023-04-23T13:46:50;94439.50;;;19.88;45.64
9225;BME280;4647;48.072;11.616;2023-04-23T13:49:21;94427.03;;;19.92;46.51
9225;BME280;4647;48.072;11.616;2023-04-23T13:51:49;94431.63;;;19.70;45.69
9225;BME280;4647;48.072;11.616;2023-04-23T13:54:18;94429.03;;;19.92;45.09
9225;BME280;4647;48.072;11.616;2023-04-23T13:56:46;94416.63;;;20.13;45.05
9225;BME280;4647;48.072;11.616;2023-04-23T13:59:17;94410.75;;;19.89;46.48
9225;BME280;4647;48.072;11.616;2023-04-23T14:01:46;94416.81;;;20.04;46.63
9225;BME280;4647;48.072;11.616;2023-04-23T14:04:15;94383.91;;;19.67;46.25
9225;BME280;4647;48.072;11.616;2023-04-23T14:06:44;94407.06;;;20.03;46.89
9225;BME280;4647;48.072;11.616;2023-04-23T14:09:12;94419.03;;;20.43;46.25
9225;BME280;4647;48.072;11.616;2023-04-23T14:11:41;94411.69;;;20.34;46.75
9225;BME280;4647;48.072;11.616;2023-04-23T14:14:09;94415.69;;;20.28;46.97
9225;BME280;4647;48.072;11.616;2023-04-23T14:16:40;94411.66;;;19.75;47.24
9225;BME280;4647;48.072;11.616;2023-04-23T14:19:08;94406.31;;;19.60;47.69
9225;BME280;4647;48.072;11.616;2023-04-23T14:21:37;94406.56;;;19.62;46.93
9225;BME280;4647;48.072;11.616;2023-04-23T14:24:08;94407.91;;;19.72;47.19
9225;BME280;4647;48.072;11.616;2023-04-23T14:26:43;94407.94;;;19.46;47.10
9225;BME280;4647;48.072;11.616;2023-04-23T14:29:18;94408.97;;;18.91;47.81
9225;BME280;4647;48.072;11.616;2023-04-23T14:31:52;94396.72;;;19.44;47.38
9225;BME280;4647;48.072;11.616;2023-04-23T14:34:21;94393.38;;;19.66;48.01
9225;BME280;4647;48.072;11.616;2023-04-23T14:36:49;94389.97;;;19.45;48.48
9225;BME280;4647;48.072;11.616;2023-04-23T14:39:18;94386.59;;;19.61;49.38
9225;BME280;4647;48.072;11.616;2023-04-23T14:41:47;94388.50;;;19.50;48.87
9225;BME280;4647;48.072;11.616;2023-04-23T14:44:15;94376.81;;;19.23;49.59
9225;BME280;4647;48.072;11.616;2023-04-23T14:46:44;94356.66;;;19.00;49.93
9225;BME280;4647;48.072;11.616;2023-04-23T14:49:18;94371.59;;;19.25;49.76
9225;BME280;4647;48.072;11.616;2023-04-23T14:51:46;94377.88;;;19.00;50.21
9225;BME280;4647;48.072;11.616;2023-04-23T14:54:18;94372.44;;;18.54;51.85
9225;BME280;4647;48.072;11.616;2023-04-23T14:56:47;94373.59;;;17.66;54.90
9225;BME280;4647;48.072;11.616;2023-04-23T14:59:15;94367.00;;;17.23;56.84
9225;BME280;4647;48.072;11.616;2023-04-23T15:01:43;94379.66;;;17.20;58.40
9225;BME280;4647;48.072;11.616;2023-04-23T15:04:12;94366.56;;;16.95;57.85
9225;BME280;4647;48.072;11.616;2023-04-23T15:06:43;94388.25;;;16.98;59.22
9225;BME280;4647;48.072;11.616;2023-04-23T15:09:12;94365.72;;;16.74;58.75
9225;BME280;4647;48.072;11.616;2023-04-23T15:11:40;94367.19;;;16.45;63.56
9225;BME280;4647;48.072;11.616;2023-04-23T15:14:18;94373.59;;;16.04;63.98
9225;BME280;4647;48.072;11.616;2023-04-23T15:16:47;94380.16;;;16.21;64.52
9225;BME280;4647;48.072;11.616;2023-04-23T15:19:16;94383.75;;;16.27;65.83
9225;BME280;4647;48.072;11.616;2023-04-23T15:21:47;94373.94;;;16.20;67.46
9225;BME280;4647;48.072;11.616;2023-04-23T15:24:16;94404.19;;;16.32;67.81
9225;BME280;4647;48.072;11.616;2023-04-23T15:26:44;94394.81;;;16.09;68.42
9225;BME280;4647;48.072;11.616;2023-04-23T15:29:13;94396.03;;;16.46;67.77
9225;BME280;4647;48.072;11.616;2023-04-23T15:31:42;94362.66;;;16.42;67.74
9225;BME280;4647;48.072;11.616;2023-04-23T15:34:11;94366.75;;;16.91;66.97
9225;BME280;4647;48.072;11.616;2023-04-23T15:36:39;94338.72;;;17.11;68.45
9225;BME280;4647;48.072;11.616;2023-04-23T15:39:10;94325.56;;;16.80;66.99
9225;BME280;4647;48.072;11.616;2023-04-23T15:41:38;94318.94;;;16.86;63.92
9225;BME280;4647;48.072;11.616;2023-04-23T15:44:08;94322.50;;;17.07;62.92
9225;BME280;4647;48.072;11.616;2023-04-23T15:46:37;94324.00;;;17.08;61.86
9225;BME280;4647;48.072;11.616;2023-04-23T15:49:06;94297.81;;;16.87;60.95
9225;BME280;4647;48.072;11.616;2023-04-23T15:51:34;94325.38;;;17.54;60.87
9225;BME280;4647;48.072;11.616;2023-04-23T15:54:03;94323.03;;;17.46;61.46
9225;BME280;4647;48.072;11.616;2023-04-23T15:56:35;94331.84;;;17.91;59.28
9225;BME280;4647;48.072;11.616;2023-04-23T15:59:03;94336.41;;;18.20;57.19
9225;BME280;4647;48.072;11.616;2023-04-23T16:01:32;94323.94;;;18.45;54.62
9225;BME280;4647;48.072;11.616;2023-04-23T16:04:00;94339.47;;;19.06;50.83
9225;BME280;4647;48.072;11.616;2023-04-23T16:06:29;94340.53;;;18.82;51.67
9225;BME280;4647;48.072;11.616;2023-04-23T16:08:57;94338.41;;;18.66;52.27
9225;BME280;4647;48.072;11.616;2023-04-23T16:11:26;94332.13;;;18.39;52.13
9225;BME280;4647;48.072;11.616;2023-04-23T16:13:57;94335.91;;;17.40;54.96
9225;BME280;4647;48.072;11.616;2023-04-23T16:16:25;94323.28;;;16.78;53.12
9225;BME280;4647;48.072;11.616;2023-04-23T16:18:55;94328.81;;;16.99;52.13
9225;BME280;4647;48.072;11.616;2023-04-23T16:21:24;94318.19;;;16.71;53.76
9225;BME280;4647;48.072;11.616;2023-04-23T16:23:52;94318.34;;;16.53;55.09
9225;BME280;4647;48.072;11.616;2023-04-23T16:26:21;94309.44;;;16.67;53.78
9225;BME280;4647;48.072;11.616;2023-04-23T16:28:50;94317.13;;;16.54;54.95
9225;BME280;4647;48.072;11.616;2023-04-23T16:31:21;94316.56;;;16.35;56.33
9225;BME280;4647;48.072;11.616;2023-04-23T16:33:49;94311.00;;;16.59;55.42
9225;BME280;4647;48.072;11.616;2023-04-23T16:36:18;94302.63;;;16.77;56.83
9225;BME280;4647;48.072;11.616;2023-04-23T16:38:46;94307.13;;;16.95;56.93
9225;BME280;4647;48.072;11.616;2023-04-23T16:41:14;94279.50;;;16.64;56.45
9225;BME280;4647;48.072;11.616;2023-04-23T16:43:44;94311.84;;;16.95;57.24
9225;BME280;4647;48.072;11.616;2023-04-23T16:46:12;94305.41;;;16.98;58.30
9225;BME280;4647;48.072;11.616;2023-04-23T16:48:43;94315.69;;;17.03;59.42
9225;BME280;4647;48.072;11.616;2023-04-23T16:51:12;94298.56;;;16.87;59.25
9225;BME280;4647;48.072;11.616;2023-04-23T16:53:41;94307.25;;;16.86;59.45
9225;BME280;4647;48.072;11.616;2023-04-23T16:56:09;94290.06;;;16.56;59.58
9225;BME280;4647;48.072;11.616;2023-04-23T16:58:38;94292.88;;;16.32;60.12
9225;BME280;4647;48.072;11.616;2023-04-23T17:01:06;94292.78;;;16.26;59.96
9225;BME280;4647;48.072;11.616;2023-04-23T17:03:35;94292.59;;;16.15;60.83
9225;BME280;4647;48.072;11.616;2023-04-23T17:06:24;94283.25;;;16.07;61.62
9225;BME280;4647;48.072;11.616;2023-04-23T17:08:54;94283.84;;;16.11;62.33
9225;BME280;4647;48.072;11.616;2023-04-23T17:11:23;94275.84;;;16.22;61.61
9225;BME280;4647;48.072;11.616;2023-04-23T17:13:51;94271.41;;;16.25;61.79
9225;BME280;4647;48.072;11.616;2023-04-23T17:16:20;94261.59;;;16.04;62.82
9225;BME280;4647;48.072;11.616;2023-04-23T17:18:49;94262.91;;;16.08;64.10
9225;BME280;4647;48.072;11.616;2023-04-23T17:21:21;94259.13;;;15.91;64.68
9225;BME280;4647;48.072;11.616;2023-04-23T17:23:50;94256.44;;;15.67;65.69
9225;BME280;4647;48.072;11.616;2023-04-23T17:26:18;94238.91;;;15.35;66.75
9225;BME280;4647;48.072;11.616;2023-04-23T17:28:47;94247.84;;;15.35;66.64
9225;BME280;4647;48.072;11.616;2023-04-23T17:31:15;94255.75;;;15.33;67.13
9225;BME280;4647;48.072;11.616;2023-04-23T17:33:45;94254.94;;;15.18;68.83
9225;BME280;4647;48.072;11.616;2023-04-23T17:36:15;94259.03;;;15.14;68.52
9225;BME280;4647;48.072;11.616;2023-04-23T17:38:55;94263.59;;;15.17;68.20
9225;BME280;4647;48.072;11.616;2023-04-23T17:41:24;94261.06;;;15.04;68.91
9225;BME280;4647;48.072;11.616;2023-04-23T17:43:52;94262.34;;;14.94;69.98
9225;BME280;4647;48.072;11.616;2023-04-23T17:46:20;94265.28;;;14.81;71.47
9225;BME280;4647;48.072;11.616;2023-04-23T17:48:49;94271.03;;;14.83;72.04
9225;BME280;4647;48.072;11.616;2023-04-23T17:51:17;94264.44;;;14.66;73.45
9225;BME280;4647;48.072;11.616;2023-04-23T17:53:46;94261.63;;;14.51;73.15
9225;BME280;4647;48.072;11.616;2023-04-23T17:56:17;94248.44;;;14.50;72.06
9225;BME280;4647;48.072;11.616;2023-04-23T17:58:46;94250.66;;;14.60;71.80
9225;BME280;4647;48.072;11.616;2023-04-23T18:01:14;94246.09;;;14.66;71.43
9225;BME280;4647;48.072;11.616;2023-04-23T18:03:43;94242.66;;;14.57;71.99
9225;BME280;4647;48.072;11.616;2023-04-23T18:06:12;94260.53;;;14.58;72.08
9225;BME280;4647;48.072;11.616;2023-04-23T18:08:40;94257.50;;;14.56;72.30
9225;BME280;4647;48.072;11.616;2023-04-23T18:11:11;94253.56;;;14.57;73.02
9225;BME280;4647;48.072;11.616;2023-04-23T18:13:42;94252.84;;;14.47;73.20
9225;BME280;4647;48.072;11.616;2023-04-23T18:16:13;94250.44;;;14.49;73.63
9225;BME280;4647;48.072;11.616;2023-04-23T18:18:41;94241.22;;;14.19;74.77
9225;BME280;4647;48.072;11.616;2023-04-23T18:21:10;94231.75;;;14.05;74.92
9225;BME280;4647;48.072;11.616;2023-04-23T18:23:39;94236.69;;;14.25;74.29
9225;BME280;4647;48.072;11.616;2023-04-23T18:26:07;94223.81;;;14.26;74.31
9225;BME280;4647;48.072;11.616;2023-04-23T18:28:35;94218.56;;;14.13;74.47
9225;BME280;4647;48.072;11.616;2023-04-23T18:31:06;94209.81;;;14.00;75.68
9225;BME280;4647;48.072;11.616;2023-04-23T18:33:40;94192.44;;;13.97;76.25
9225;BME280;4647;48.072;11.616;2023-04-23T18:36:19;94211.44;;;14.16;75.69
9225;BME280;4647;48.072;11.616;2023-04-23T18:38:48;94196.34;;;14.05;75.37
9225;BME280;4647;48.072;11.616;2023-04-23T18:41:16;94209.38;;;14.01;75.55
9225;BME280;4647;48.072;11.616;2023-04-23T18:43:45;94235.06;;;14.09;74.96
9225;BME280;4647;48.072;11.616;2023-04-23T18:46:16;94260.75;;;14.18;74.76
9225;BME280;4647;48.072;11.616;2023-04-23T18:48:49;94278.78;;;14.15;75.03
9225;BME280;4647;48.072;11.616;2023-04-23T18:51:19;94289.25;;;14.07;75.21
9225;BME280;4647;48.072;11.616;2023-04-23T18:53:51;94284.72;;;13.86;75.65
9225;BME280;4647;48.072;11.616;2023-04-23T18:56:20;94344.44;;;14.17;75.69
9225;BME280;4647;48.072;11.616;2023-04-23T18:58:49;94364.91;;;14.03;75.52
9225;BME280;4647;48.072;11.616;2023-04-23T19:01:27;94380.31;;;13.79;73.76
9225;BME280;4647;48.072;11.616;2023-04-23T19:03:55;94403.31;;;13.78;73.30
9225;BME280;4647;48.072;11.616;2023-04-23T19:06:24;94399.34;;;13.61;67.62
9225;BME280;4647;48.072;11.616;2023-04-23T19:08:52;94401.09;;;13.36;62.42
9225;BME280;4647;48.072;11.616;2023-04-23T19:11:21;94382.75;;;12.97;63.01
9225;BME280;4647;48.072;11.616;2023-04-23T19:13:51;94406.78;;;12.98;62.57
9225;BME280;4647;48.072;11.616;2023-04-23T19:16:19;94373.78;;;12.78;62.30
9225;BME280;4647;48.072;11.616;2023-04-23T19:18:50;94425.81;;;12.67;63.84
9225;BME280;4647;48.072;11.616;2023-04-23T19:21:19;94417.59;;;12.14;66.54
9225;BME280;4647;48.072;11.616;2023-04-23T19:23:47;94416.63;;;12.08;68.04